createdAt,value
2019-03-21T00:00:15.292Z,102331.45
2019-03-21T00:02:43.773Z,102333.50
2019-03-21T00:05:12.804Z,102331.88
2019-03-21T00:07:41.376Z,102331.30
2019-03-21T00:10:41.645Z,102330.52
2019-03-21T00:13:11.724Z,102336.31
2019-03-21T00:15:42.709Z,102336.03
2019-03-21T00:18:13.470Z,102340.77
2019-03-21T00:20:42.427Z,102343.36
2019-03-21T00:23:10.650Z,102351.53
2019-03-21T00:25:39.030Z,102347.75
2019-03-21T00:28:07.607Z,102359.27
2019-03-21T00:30:37.732Z,102359.16
2019-03-21T00:33:06.706Z,102347.61
2019-03-21T00:35:35.512Z,102354.02
2019-03-21T00:38:04.194Z,102348.39
2019-03-21T00:40:36.281Z,102356.20
2019-03-21T00:43:07.112Z,102348.30
2019-03-21T00:45:35.434Z,102349.00
2019-03-21T00:48:05.364Z,102357.48
2019-03-21T00:50:36.678Z,102351.09
2019-03-21T00:53:05.439Z,102342.39
2019-03-21T00:55:34.851Z,102340.69
2019-03-21T00:58:03.875Z,102347.94
2019-03-21T01:00:40.823Z,102344.09
2019-03-21T01:03:11.085Z,102348.25
2019-03-21T01:05:39.924Z,102340.73
2019-03-21T01:08:08.039Z,102341.59
2019-03-21T01:10:37.230Z,102338.44
2019-03-21T01:13:10.307Z,102343.05
2019-03-21T01:15:38.831Z,102343.55
2019-03-21T01:18:07.307Z,102332.55
2019-03-21T01:20:38.027Z,102336.94
2019-03-21T01:23:06.589Z,102341.43
2019-03-21T01:25:40.251Z,102343.38
2019-03-21T01:28:09.196Z,102341.93
2019-03-21T01:30:38.425Z,102345.88
2019-03-21T01:33:09.365Z,102339.73
2019-03-21T01:35:39.911Z,102340.89
2019-03-21T01:38:08.987Z,102339.44
2019-03-21T01:40:39.057Z,102335.04
2019-03-21T01:43:08.730Z,102331.23
2019-03-21T01:45:37.983Z,102331.18
2019-03-21T01:48:07.139Z,102326.39
2019-03-21T01:50:35.788Z,102332.23
2019-03-21T01:53:04.415Z,102333.98
2019-03-21T01:55:32.766Z,102336.58
2019-03-21T01:58:01.207Z,102338.61
2019-03-21T02:00:33.385Z,102336.41
2019-03-21T02:03:01.816Z,102332.16
2019-03-21T02:05:30.635Z,102329.75
2019-03-21T02:07:59.431Z,102328.83
2019-03-21T02:10:28.530Z,102322.52
2019-03-21T02:12:56.880Z,102324.23
2019-03-21T02:15:25.485Z,102321.60
2019-03-21T02:20:41.096Z,102328.27
2019-03-21T02:23:09.851Z,102323.66
2019-03-21T02:25:38.558Z,102321.95
2019-03-21T02:28:11.066Z,102321.86
2019-03-21T02:30:42.973Z,102330.44
2019-03-21T02:33:25.226Z,102325.19
2019-03-21T02:35:54.024Z,102327.92
2019-03-21T02:38:22.590Z,102328.87
2019-03-21T02:40:51.349Z,102340.94
2019-03-21T02:43:20.201Z,102343.31
2019-03-21T02:45:49.362Z,102335.33
2019-03-21T02:48:17.846Z,102336.16
2019-03-21T02:50:46.076Z,102336.00
2019-03-21T02:53:14.422Z,102335.40
2019-03-21T02:55:42.613Z,102344.16
2019-03-21T02:58:10.787Z,102343.02
2019-03-21T03:00:39.115Z,102340.62
2019-03-21T03:03:08.124Z,102339.63
2019-03-21T03:05:36.430Z,102338.89
2019-03-21T03:08:05.175Z,102342.66
2019-03-21T03:10:41.817Z,102338.61
2019-03-21T03:13:10.435Z,102344.89
2019-03-21T03:15:38.865Z,102340.12
2019-03-21T03:18:07.277Z,102339.39
2019-03-21T03:20:35.341Z,102336.61
2019-03-21T03:23:04.423Z,102334.03
2019-03-21T03:25:33.079Z,102329.30
2019-03-21T03:28:15.367Z,102328.83
2019-03-21T03:30:43.992Z,102323.98
2019-03-21T03:33:12.916Z,102312.14
2019-03-21T03:35:41.744Z,102315.38
2019-03-21T03:38:10.608Z,102312.84
2019-03-21T03:40:42.909Z,102318.67
2019-03-21T03:43:11.805Z,102318.17
2019-03-21T03:45:40.363Z,102312.89
2019-03-21T03:48:08.670Z,102317.81
2019-03-21T03:50:37.882Z,102318.84
2019-03-21T03:53:06.466Z,102322.41
2019-03-21T03:55:35.274Z,102323.46
2019-03-21T03:58:06.235Z,102323.22
2019-03-21T04:00:34.967Z,102331.31
2019-03-21T04:03:03.636Z,102336.48
2019-03-21T04:05:31.891Z,102331.31
2019-03-21T04:08:00.197Z,102335.73
2019-03-21T04:10:32.197Z,102340.47
2019-03-21T04:13:01.014Z,102340.91
2019-03-21T04:15:29.769Z,102340.63
2019-03-21T04:17:58.661Z,102344.22
2019-03-21T04:20:29.469Z,102346.16
2019-03-21T04:22:58.304Z,102346.78
2019-03-21T04:25:35.231Z,102349.63
2019-03-21T04:28:04.529Z,102348.51
2019-03-21T04:30:33.389Z,102357.12
2019-03-21T04:33:01.471Z,102361.11
2019-03-21T04:35:30.490Z,102359.89
2019-03-21T04:37:58.666Z,102364.20
2019-03-21T04:40:27.319Z,102354.30
2019-03-21T04:42:55.825Z,102352.10
2019-03-21T04:45:24.711Z,102349.50
2019-03-21T04:47:52.953Z,102353.17
2019-03-21T04:50:23.884Z,102353.58
2019-03-21T04:52:52.413Z,102350.49
2019-03-21T04:55:21.035Z,102345.88
2019-03-21T04:57:49.422Z,102352.47
2019-03-21T05:00:24.937Z,102340.50
2019-03-21T05:02:56.094Z,102345.38
2019-03-21T05:05:26.481Z,102349.68
2019-03-21T05:07:55.040Z,102349.55
2019-03-21T05:10:23.702Z,102348.97
2019-03-21T05:12:52.785Z,102351.03
2019-03-21T05:15:33.370Z,102354.58
2019-03-21T05:18:09.268Z,102355.43
2019-03-21T05:20:37.737Z,102348.11
2019-03-21T05:23:06.936Z,102353.62
2019-03-21T05:25:35.503Z,102357.66
2019-03-21T05:28:04.056Z,102361.69
2019-03-21T05:30:38.297Z,102364.98
2019-03-21T05:33:07.362Z,102360.22
2019-03-21T05:35:36.494Z,102367.69
2019-03-21T05:38:05.123Z,102363.03
2019-03-21T05:40:34.327Z,102367.67
2019-03-21T05:43:07.489Z,102364.22
2019-03-21T05:45:36.355Z,102362.15
2019-03-21T05:48:05.128Z,102365.06
2019-03-21T05:50:33.599Z,102357.27
2019-03-21T05:53:02.604Z,102366.41
2019-03-21T05:55:31.076Z,102369.45
2019-03-21T05:57:59.420Z,102378.52
2019-03-21T06:00:33.201Z,102376.33
2019-03-21T06:03:01.922Z,102374.84
2019-03-21T06:05:30.157Z,102371.43
2019-03-21T06:08:21.935Z,102368.46
2019-03-21T06:10:50.781Z,102371.38
2019-03-21T06:13:19.382Z,102369.37
2019-03-21T06:15:48.278Z,102377.94
2019-03-21T06:19:06.039Z,102388.19
2019-03-21T06:22:34.300Z,102382.52
2019-03-21T06:25:47.694Z,102376.20
2019-03-21T06:28:15.657Z,102378.63
2019-03-21T06:30:43.756Z,102388.28
2019-03-21T06:33:11.825Z,102387.05
2019-03-21T06:35:41.494Z,102394.34
2019-03-21T06:38:10.191Z,102389.64
2019-03-21T06:40:39.099Z,102393.66
2019-03-21T06:43:08.121Z,102390.66
2019-03-21T06:45:47.280Z,102398.57
2019-03-21T06:48:07.054Z,102397.16
2019-03-21T06:50:35.201Z,102396.84
2019-03-21T06:53:04.134Z,102399.82
2019-03-21T06:55:32.707Z,102404.00
2019-03-21T06:58:01.077Z,102405.83
2019-03-21T07:00:29.374Z,102404.51
2019-03-21T07:02:58.283Z,102395.36
2019-03-21T07:05:26.829Z,102402.30
2019-03-21T07:07:55.479Z,102391.28
2019-03-21T07:10:24.142Z,102395.00
2019-03-21T07:12:53.256Z,102387.30
2019-03-21T07:15:22.201Z,102391.41
2019-03-21T07:17:51.076Z,102394.84
2019-03-21T07:20:19.638Z,102396.76
2019-03-21T07:22:47.760Z,102404.29
2019-03-21T07:25:17.478Z,102400.15
2019-03-21T07:27:45.623Z,102406.52
2019-03-21T07:30:14.909Z,102399.37
2019-03-21T07:32:43.785Z,102396.78
2019-03-21T07:35:12.536Z,102391.34
2019-03-21T07:37:40.839Z,102391.67
2019-03-21T07:40:10.871Z,102393.03
2019-03-21T07:42:38.924Z,102398.42
2019-03-21T07:45:08.085Z,102393.07
2019-03-21T07:47:37.074Z,102395.16
2019-03-21T07:50:06.583Z,102395.82
2019-03-21T07:52:35.783Z,102398.80
2019-03-21T07:55:07.024Z,102394.53
2019-03-21T07:57:35.561Z,102391.31
2019-03-21T08:00:07.346Z,102396.41
2019-03-21T08:02:35.626Z,102390.84
2019-03-21T08:05:07.015Z,102388.56
2019-03-21T08:07:35.534Z,102382.80
2019-03-21T08:10:04.849Z,102377.41
2019-03-21T08:12:33.299Z,102379.83
2019-03-21T08:15:01.906Z,102377.76
2019-03-21T08:17:30.275Z,102376.44
2019-03-21T08:19:58.495Z,102380.28
2019-03-21T08:22:27.020Z,102376.20
2019-03-21T08:24:55.522Z,102364.17
2019-03-21T08:27:23.672Z,102369.86
2019-03-21T08:29:52.021Z,102366.54
2019-03-21T08:32:20.877Z,102366.47
2019-03-21T08:34:49.077Z,102363.72
2019-03-21T08:37:17.288Z,102362.37
2019-03-21T08:39:45.835Z,102374.34
2019-03-21T08:42:14.825Z,102365.71
2019-03-21T08:44:43.073Z,102369.84
2019-03-21T08:47:11.589Z,102359.93
2019-03-21T08:49:40.794Z,102373.52
2019-03-21T08:52:09.518Z,102371.36
2019-03-21T08:54:38.452Z,102365.33
2019-03-21T08:57:06.734Z,102361.67
2019-03-21T08:59:35.970Z,102363.23
2019-03-21T09:02:04.587Z,102360.20
2019-03-21T09:04:33.376Z,102358.81
2019-03-21T09:07:02.277Z,102366.70
2019-03-21T09:09:31.274Z,102360.36
2019-03-21T09:12:00.209Z,102362.47
2019-03-21T09:14:28.697Z,102358.67
2019-03-21T09:16:57.325Z,102355.78
2019-03-21T09:19:25.385Z,102352.66
2019-03-21T09:21:53.904Z,102351.09
2019-03-21T09:24:22.117Z,102346.48
2019-03-21T09:26:50.417Z,102354.16
2019-03-21T09:29:19.105Z,102343.94
2019-03-21T09:31:47.534Z,102344.56
2019-03-21T09:34:15.706Z,102342.23
2019-03-21T09:36:44.223Z,102334.26
2019-03-21T09:39:13.239Z,102332.16
2019-03-21T09:41:41.722Z,102334.47
2019-03-21T09:44:10.011Z,102332.59
2019-03-21T09:46:50.078Z,102334.32
2019-03-21T09:49:09.355Z,102330.70
2019-03-21T09:51:38.213Z,102331.20
2019-03-21T09:54:09.882Z,102329.70
2019-03-21T09:56:36.374Z,102330.17
2019-03-21T09:59:06.582Z,102322.89
2019-03-21T10:01:34.975Z,102318.30
2019-03-21T10:04:03.576Z,102321.75
2019-03-21T10:06:32.013Z,102311.05
2019-03-21T10:09:00.198Z,102314.30
2019-03-21T10:11:28.704Z,102306.55
2019-03-21T10:13:57.419Z,102313.38
2019-03-21T10:16:26.098Z,102305.02
2019-03-21T10:18:54.286Z,102310.42
2019-03-21T10:21:22.610Z,102311.08
2019-03-21T10:23:51.669Z,102314.45
2019-03-21T10:26:20.260Z,102316.10
2019-03-21T10:28:48.553Z,102312.26
2019-03-21T10:31:16.750Z,102306.98
2019-03-21T10:33:46.041Z,102299.78
2019-03-21T10:36:16.127Z,102302.06
2019-03-21T10:38:44.630Z,102299.31
2019-03-21T10:41:13.315Z,102304.37
2019-03-21T10:43:41.737Z,102299.63
2019-03-21T10:46:10.166Z,102296.84
2019-03-21T10:48:38.706Z,102295.18
2019-03-21T10:51:07.435Z,102297.66
2019-03-21T10:53:36.063Z,102295.13
2019-03-21T10:56:06.083Z,102284.68
2019-03-21T10:58:34.793Z,102282.59
2019-03-21T11:01:03.753Z,102275.39
2019-03-21T11:03:32.252Z,102273.89
2019-03-21T11:06:00.615Z,102276.58
2019-03-21T11:08:29.134Z,102272.25
2019-03-21T11:10:58.033Z,102272.88
2019-03-21T11:13:27.128Z,102269.52
2019-03-21T11:15:56.123Z,102263.57
2019-03-21T11:18:35.527Z,102262.70
2019-03-21T11:20:54.658Z,102259.63
2019-03-21T11:23:23.484Z,102257.81
2019-03-21T11:25:52.506Z,102257.59
2019-03-21T11:28:21.276Z,102249.83
2019-03-21T11:30:49.814Z,102249.77
2019-03-21T11:33:18.363Z,102245.64
2019-03-21T11:35:48.212Z,102239.11
2019-03-21T11:38:17.037Z,102239.52
2019-03-21T11:40:48.259Z,102235.25
2019-03-21T11:43:17.376Z,102229.52
2019-03-21T11:45:47.804Z,102229.52
2019-03-21T11:48:16.980Z,102221.88
2019-03-21T11:50:45.432Z,102228.02
2019-03-21T11:53:13.999Z,102214.66
2019-03-21T11:55:42.662Z,102211.20
2019-03-21T11:58:12.102Z,102207.23
2019-03-21T12:00:45.358Z,102197.95
2019-03-21T12:03:13.610Z,102195.51
2019-03-21T12:05:42.328Z,102196.50
2019-03-21T12:08:10.868Z,102195.36
2019-03-21T12:10:39.335Z,102188.88
2019-03-21T12:13:07.806Z,102187.78
2019-03-21T12:15:36.503Z,102182.73
2019-03-21T12:18:05.227Z,102176.45
2019-03-21T12:20:35.737Z,102183.02
2019-03-21T12:23:04.861Z,102174.30
2019-03-21T12:25:33.240Z,102168.31
2019-03-21T12:28:02.080Z,102163.65
2019-03-21T12:30:50.329Z,102157.69
2019-03-21T12:33:20.605Z,102157.97
2019-03-21T12:35:50.104Z,102152.95
2019-03-21T12:38:19.396Z,102151.80
2019-03-21T12:40:47.664Z,102143.45
2019-03-21T12:43:16.698Z,102148.43
2019-03-21T12:45:45.232Z,102135.98
2019-03-21T12:48:13.528Z,102141.03
2019-03-21T12:50:41.944Z,102137.41
2019-03-21T12:53:10.149Z,102143.01
2019-03-21T12:55:39.210Z,102145.21
2019-03-21T12:58:07.939Z,102135.16
2019-03-21T13:00:41.479Z,102137.61
2019-03-21T13:03:10.261Z,102132.25
2019-03-21T13:05:39.261Z,102127.81
2019-03-21T13:08:07.570Z,102118.48
2019-03-21T13:10:36.334Z,102113.06
2019-03-21T13:13:05.633Z,102117.36
2019-03-21T13:15:34.742Z,102105.53
2019-03-21T13:18:04.655Z,102103.77
2019-03-21T13:20:32.952Z,102101.27
2019-03-21T13:23:01.172Z,102098.78
2019-03-21T13:25:29.812Z,102097.00
2019-03-21T13:27:59.039Z,102096.39
2019-03-21T13:30:27.631Z,102094.45
2019-03-21T13:32:56.324Z,102089.16
2019-03-21T13:35:32.720Z,102084.02
2019-03-21T13:37:54.711Z,102082.47
2019-03-21T13:40:23.504Z,102076.18
2019-03-21T13:42:51.738Z,102077.72
2019-03-21T13:45:19.956Z,102077.78
2019-03-21T13:47:48.249Z,102075.60
2019-03-21T13:50:16.734Z,102067.28
2019-03-21T13:52:45.458Z,102063.47
2019-03-21T13:55:14.007Z,102062.10
2019-03-21T13:57:42.204Z,102055.91
2019-03-21T14:00:14.225Z,102065.39
2019-03-21T14:02:42.428Z,102053.20
2019-03-21T14:05:11.257Z,102054.22
2019-03-21T14:07:39.889Z,102047.48
2019-03-21T14:10:09.394Z,102044.60
2019-03-21T14:12:38.356Z,102039.61
2019-03-21T14:15:07.732Z,102042.34
2019-03-21T14:17:36.280Z,102035.24
2019-03-21T14:20:06.727Z,102024.88
2019-03-21T14:22:35.652Z,102021.27
2019-03-21T14:25:05.559Z,102019.71
2019-03-21T14:27:34.080Z,102018.23
2019-03-21T14:30:02.872Z,102008.89
2019-03-21T14:32:31.376Z,102012.81
2019-03-21T14:35:00.174Z,102013.42
2019-03-21T14:37:28.708Z,102017.34
2019-03-21T14:39:56.949Z,102011.83
2019-03-21T14:42:25.948Z,102004.67
2019-03-21T14:44:54.283Z,101998.60
2019-03-21T14:47:23.065Z,102006.65
2019-03-21T14:49:53.104Z,102003.85
2019-03-21T14:52:22.288Z,102003.27
2019-03-21T14:54:50.475Z,102002.50
2019-03-21T14:57:19.545Z,101998.64
2019-03-21T14:59:47.956Z,102000.60
2019-03-21T15:02:16.849Z,102000.15
2019-03-21T15:04:45.409Z,102005.27
2019-03-21T15:07:14.279Z,102002.59
2019-03-21T15:09:43.229Z,101995.19
2019-03-21T15:12:11.627Z,101994.39
2019-03-21T15:14:40.826Z,101992.87
2019-03-21T15:17:09.713Z,101987.53
2019-03-21T15:19:39.346Z,101992.07
2019-03-21T15:22:08.218Z,101991.04
2019-03-21T15:24:37.572Z,101989.69
2019-03-21T15:27:06.339Z,101981.52
2019-03-21T15:29:35.523Z,101982.59
2019-03-21T15:32:04.129Z,101986.30
2019-03-21T15:34:32.596Z,101991.59
2019-03-21T15:37:00.826Z,101987.58
2019-03-21T15:39:29.238Z,101985.59
2019-03-21T15:41:58.783Z,101983.22
2019-03-21T15:44:27.157Z,101981.40
2019-03-21T15:46:55.419Z,101976.92
2019-03-21T15:49:23.534Z,101972.37
2019-03-21T15:51:51.853Z,101975.23
2019-03-21T15:54:20.748Z,101970.35
2019-03-21T15:56:49.108Z,101967.69
2019-03-21T15:59:17.797Z,101963.40
2019-03-21T16:01:46.311Z,101967.47
2019-03-21T16:04:15.326Z,101966.48
2019-03-21T16:06:43.838Z,101965.76
2019-03-21T16:09:12.239Z,101965.64
2019-03-21T16:11:41.118Z,101967.06
2019-03-21T16:14:10.326Z,101962.84
2019-03-21T16:16:38.922Z,101963.45
2019-03-21T16:19:07.171Z,101954.63
2019-03-21T16:21:35.424Z,101952.05
2019-03-21T16:24:06.086Z,101954.73
2019-03-21T16:26:36.823Z,101958.42
2019-03-21T16:29:05.647Z,101957.88
2019-03-21T16:31:34.183Z,101954.23
2019-03-21T16:34:03.227Z,101953.70
2019-03-21T16:36:31.361Z,101953.11
2019-03-21T16:38:59.992Z,101948.84
2019-03-21T16:41:28.649Z,101946.81
2019-03-21T16:43:57.444Z,101947.33
2019-03-21T16:46:26.101Z,101947.16
2019-03-21T16:48:54.433Z,101936.65
2019-03-21T16:51:23.129Z,101940.33
2019-03-21T16:53:52.001Z,101936.95
2019-03-21T16:56:20.969Z,101943.57
2019-03-21T16:58:49.286Z,101946.95
2019-03-21T17:01:18.954Z,101952.42
2019-03-21T17:03:47.389Z,101949.05
2019-03-21T17:06:16.281Z,101947.48
2019-03-21T17:08:44.541Z,101953.29
2019-03-21T17:11:18.355Z,101953.87
2019-03-21T17:13:47.218Z,101955.13
2019-03-21T17:16:15.404Z,101949.53
2019-03-21T17:18:43.905Z,101948.09
2019-03-21T17:21:12.979Z,101951.80
2019-03-21T17:23:49.239Z,101941.25
2019-03-21T17:26:20.945Z,101941.82
2019-03-21T17:28:50.091Z,101946.55
2019-03-21T17:31:18.643Z,101947.14
2019-03-21T17:33:57.693Z,101948.05
2019-03-21T17:36:26.745Z,101954.95
2019-03-21T17:38:55.566Z,101955.95
2019-03-21T17:41:26.844Z,101963.53
2019-03-21T17:43:55.025Z,101960.20
2019-03-21T17:46:24.042Z,101955.27
2019-03-21T17:48:53.133Z,101958.20
2019-03-21T17:51:21.525Z,101964.30
2019-03-21T17:53:51.119Z,101963.78
2019-03-21T17:56:20.034Z,101967.12
2019-03-21T17:58:49.865Z,101973.11
2019-03-21T18:01:18.289Z,101968.45
2019-03-21T18:03:47.122Z,101971.30
2019-03-21T18:06:15.811Z,101980.03
2019-03-21T18:08:44.325Z,101976.53
2019-03-21T18:11:12.975Z,101976.98
2019-03-21T18:13:41.170Z,101973.44
2019-03-21T18:16:09.502Z,101972.45
2019-03-21T18:18:37.681Z,101983.31
2019-03-21T18:21:05.791Z,101974.31
2019-03-21T18:23:35.479Z,101983.66
2019-03-21T18:26:03.803Z,101977.77
2019-03-21T18:28:32.804Z,101982.00
2019-03-21T18:31:01.036Z,101983.01
2019-03-21T18:33:29.765Z,101987.35
2019-03-21T18:35:58.258Z,101990.08
2019-03-21T18:38:27.699Z,101992.91
2019-03-21T18:40:56.659Z,101992.82
2019-03-21T18:43:25.144Z,101992.52
2019-03-21T18:45:54.602Z,101997.20
2019-03-21T18:48:22.780Z,101989.73
2019-03-21T18:50:51.215Z,102006.58
2019-03-21T18:53:19.986Z,102001.83
2019-03-21T18:55:48.655Z,102004.78
2019-03-21T18:58:24.063Z,102006.30
2019-03-21T19:00:52.883Z,101998.38
2019-03-21T19:03:21.428Z,101998.38
2019-03-21T19:05:57.237Z,101999.84
2019-03-21T19:08:28.679Z,102003.95
2019-03-21T19:10:57.002Z,102002.48
2019-03-21T19:13:25.922Z,102001.86
2019-03-21T19:15:54.842Z,101997.75
2019-03-21T19:18:23.423Z,101991.83
2019-03-21T19:20:52.396Z,102000.23
2019-03-21T19:23:21.646Z,102004.20
2019-03-21T19:25:49.927Z,102003.17
2019-03-21T19:28:18.081Z,102009.18
2019-03-21T19:30:46.654Z,102008.78
2019-03-21T19:33:15.268Z,102010.58
2019-03-21T19:35:46.780Z,102005.55
2019-03-21T19:38:14.640Z,102008.85
2019-03-21T19:40:43.458Z,102009.91
2019-03-21T19:43:12.218Z,102015.99
2019-03-21T19:45:40.985Z,102013.13
2019-03-21T19:48:09.942Z,102007.91
2019-03-21T19:50:38.209Z,102012.30
2019-03-21T19:53:13.026Z,102009.20
2019-03-21T19:55:42.463Z,102016.30
2019-03-21T19:58:11.969Z,102013.69
2019-03-21T20:00:40.569Z,102019.97
2019-03-21T20:03:09.087Z,102015.13
2019-03-21T20:05:37.870Z,102015.52
2019-03-21T20:08:06.452Z,102011.86
2019-03-21T20:10:35.809Z,102011.23
2019-03-21T20:13:06.435Z,102010.22
2019-03-21T20:15:35.161Z,102024.97
2019-03-21T20:18:03.746Z,102026.77
2019-03-21T20:20:32.284Z,102027.97
2019-03-21T20:23:00.343Z,102030.37
2019-03-21T20:25:29.094Z,102029.92
2019-03-21T20:27:57.349Z,102035.91
2019-03-21T20:30:27.554Z,102037.08
2019-03-21T20:32:58.251Z,102035.73
2019-03-21T20:35:26.562Z,102036.42
2019-03-21T20:37:55.091Z,102035.89
2019-03-21T20:40:23.717Z,102035.09
2019-03-21T20:42:51.950Z,102031.10
2019-03-21T20:45:21.865Z,102030.50
2019-03-21T20:47:50.634Z,102029.73
2019-03-21T20:50:20.082Z,102032.98
2019-03-21T20:52:50.135Z,102034.48
2019-03-21T20:55:20.538Z,102036.53
2019-03-21T20:57:48.785Z,102035.89
2019-03-21T21:00:19.815Z,102038.70
2019-03-21T21:02:49.450Z,102037.17
2019-03-21T21:05:18.314Z,102034.28
2019-03-21T21:07:47.585Z,102037.77
2019-03-21T21:10:16.518Z,102039.98
2019-03-21T21:12:45.118Z,102038.72
2019-03-21T21:15:14.490Z,102040.27
2019-03-21T21:17:43.324Z,102037.13
2019-03-21T21:20:13.949Z,102034.40
2019-03-21T21:22:42.477Z,102035.99
2019-03-21T21:25:12.133Z,102031.25
2019-03-21T21:27:49.231Z,102036.28
2019-03-21T21:30:13.188Z,102036.64
2019-03-21T21:32:41.504Z,102037.08
2019-03-21T21:35:10.269Z,102035.39
2019-03-21T21:37:39.042Z,102033.34
2019-03-21T21:40:09.054Z,102034.59
2019-03-21T21:42:38.151Z,102027.56
2019-03-21T21:45:08.928Z,102031.59
2019-03-21T21:47:37.593Z,102024.62
2019-03-21T21:50:08.693Z,102031.41
2019-03-21T21:52:41.975Z,102024.31
2019-03-21T21:55:07.841Z,102025.52
2019-03-21T21:57:37.388Z,102023.41
2019-03-21T22:00:09.694Z,102021.67
2019-03-21T22:02:38.283Z,102028.58
2019-03-21T22:05:07.145Z,102025.27
2019-03-21T22:07:35.587Z,102028.42
2019-03-21T22:10:05.725Z,102026.94
2019-03-21T22:12:36.791Z,102034.73
2019-03-21T22:15:07.749Z,102024.33
2019-03-21T22:17:36.034Z,102027.50
2019-03-21T22:20:05.795Z,102023.34
2019-03-21T22:22:35.143Z,102026.66
2019-03-21T22:25:05.060Z,102033.01
2019-03-21T22:27:33.970Z,102034.30
2019-03-21T22:30:04.363Z,102029.98
2019-03-21T22:32:34.776Z,102021.03
2019-03-21T22:35:03.999Z,102028.39
2019-03-21T22:37:32.438Z,102027.05
2019-03-21T22:40:03.663Z,102026.57
2019-03-21T22:42:36.109Z,102026.05
2019-03-21T22:45:06.382Z,102027.13
2019-03-21T22:47:34.685Z,102028.17
2019-03-21T22:50:04.570Z,102027.07
2019-03-21T22:52:33.186Z,102022.84
2019-03-21T22:55:01.444Z,102027.22
2019-03-21T22:57:31.051Z,102025.41
2019-03-21T22:59:58.978Z,102026.98
2019-03-21T23:02:27.612Z,102021.48
2019-03-21T23:04:56.352Z,102020.33
2019-03-21T23:07:24.663Z,102015.08
2019-03-21T23:09:53.398Z,102017.79
2019-03-21T23:12:21.963Z,102019.16
2019-03-21T23:14:50.553Z,102011.66
2019-03-21T23:17:18.765Z,102019.04
2019-03-21T23:19:46.881Z,102017.83
2019-03-21T23:22:15.146Z,102023.80
2019-03-21T23:24:43.240Z,102019.53
2019-03-21T23:27:12.089Z,102025.67
2019-03-21T23:29:40.264Z,102023.09
2019-03-21T23:32:09.099Z,102021.61
2019-03-21T23:34:37.613Z,102020.56
2019-03-21T23:37:07.445Z,102024.83
2019-03-21T23:39:35.564Z,102028.88
2019-03-21T23:42:04.309Z,102032.44
2019-03-21T23:44:33.733Z,102024.79
2019-03-21T23:47:02.199Z,102036.17
2019-03-21T23:49:31.271Z,102030.94
2019-03-21T23:51:59.637Z,102034.48
2019-03-21T23:54:28.354Z,102026.67
2019-03-21T23:57:04.516Z,102014.79
2019-03-21T23:59:27.661Z,102017.00
